createdAt,value
2023-05-21T07:29:33.446Z,-24973.31
2023-05-21T07:32:00.847Z,-24979.22
2023-05-21T07:34:28.661Z,-24989.50
2023-05-21T07:36:58.855Z,-25004.53
2023-05-21T07:39:26.240Z,-24976.09
2023-05-21T07:41:53.713Z,-24931.69
2023-05-21T07:44:21.184Z,-24955.16
2023-05-21T07:46:48.664Z,-24957.97
2023-05-21T07:49:17.049Z,-24959.00
2023-05-21T07:51:46.274Z,-24998.22
2023-05-21T07:54:13.678Z,-24956.78
2023-05-21T07:56:41.416Z,-24962.09
2023-05-21T07:59:14.389Z,-25036.13
2023-05-21T08:02:07.380Z,-25040.69
2023-05-21T08:04:40.890Z,-25009.09
2023-05-21T08:07:09.988Z,-25007.78
2023-05-21T08:09:37.427Z,-25023.06
2023-05-21T08:12:05.404Z,-25042.91
2023-05-21T08:14:32.857Z,-25055.38
2023-05-21T08:17:00.711Z,-25020.41
2023-05-21T08:19:28.152Z,-25023.81
2023-05-21T08:21:55.837Z,-25034.53
2023-05-21T08:24:26.718Z,-25007.19
2023-05-21T08:26:54.225Z,-24937.28
2023-05-21T08:29:21.522Z,-24931.81
2023-05-21T08:31:53.878Z,-24918.97
2023-05-21T08:34:21.230Z,-24933.00
2023-05-21T08:36:58.419Z,-24932.56
2023-05-21T08:39:44.051Z,-24943.50
2023-05-21T08:42:19.791Z,-25000.56
2023-05-21T08:44:55.263Z,-25041.13
2023-05-21T08:47:26.225Z,-25023.06
2023-05-21T08:49:54.721Z,-24975.66
2023-05-21T08:52:22.027Z,-25046.56
2023-05-21T08:54:51.338Z,-25035.25
2023-05-21T08:57:22.286Z,-25003.50
2023-05-21T08:59:51.068Z,-24934.94
2023-05-21T09:02:27.575Z,-24924.28
2023-05-21T09:04:57.313Z,-24922.06
2023-05-21T09:07:25.208Z,-24963.56
2023-05-21T09:10:13.925Z,-24984.94
2023-05-21T09:12:42.333Z,-25033.06
2023-05-21T09:15:10.648Z,-24998.06
2023-05-21T09:17:39.178Z,-24966.22
2023-05-21T09:20:46.211Z,-24959.72
2023-05-21T09:23:17.359Z,-24970.50
2023-05-21T09:25:52.169Z,-25019.81
2023-05-21T09:28:31.418Z,-25027.47
2023-05-21T09:31:03.333Z,-25024.69
2023-05-21T09:33:30.815Z,-24966.81
2023-05-21T09:35:58.717Z,-24976.84
2023-05-21T09:38:27.625Z,-24950.44
2023-05-21T09:40:56.367Z,-24904.16
2023-05-21T09:43:23.898Z,-24873.91
2023-05-21T09:45:56.566Z,-24902.97
2023-05-21T09:48:37.020Z,-24886.22
2023-05-21T09:51:16.751Z,-24881.63
2023-05-21T09:53:44.797Z,-24893.34
2023-05-21T09:56:12.235Z,-24903.56
2023-05-21T09:58:39.847Z,-24923.09
2023-05-21T10:01:07.622Z,-24928.88
2023-05-21T10:03:38.939Z,-24954.88
2023-05-21T10:06:08.255Z,-24945.56
2023-05-21T10:08:37.475Z,-24971.69
2023-05-21T10:11:05.826Z,-24964.47
2023-05-21T10:13:37.354Z,-24939.94
2023-05-21T10:16:05.492Z,-24946.59
2023-05-21T10:18:33.573Z,-24948.38
2023-05-21T10:21:01.024Z,-24932.13
2023-05-21T10:23:29.190Z,-24964.59
2023-05-21T10:25:57.381Z,-24931.97
2023-05-21T10:28:24.881Z,-24907.41
2023-05-21T10:30:53.653Z,-24898.81
2023-05-21T10:33:23.244Z,-24931.22
2023-05-21T10:35:53.259Z,-24920.13
2023-05-21T10:38:21.269Z,-24908.75
2023-05-21T10:40:49.259Z,-24920.59
2023-05-21T10:43:41.431Z,-24942.00
2023-05-21T10:46:15.022Z,-24917.78
2023-05-21T10:48:54.321Z,-24899.56
2023-05-21T10:51:38.875Z,-24929.16
2023-05-21T10:54:17.557Z,-24929.00
2023-05-21T10:57:23.158Z,-24918.38
2023-05-21T10:59:50.758Z,-24937.44
2023-05-21T11:02:19.668Z,-24930.50
2023-05-21T11:04:49.349Z,-24901.19
2023-05-21T11:07:23.939Z,-24863.38
2023-05-21T11:09:51.332Z,-24862.03
2023-05-21T11:12:19.927Z,-24857.44
2023-05-21T11:14:57.236Z,-24878.50
2023-05-21T11:17:40.663Z,-24871.53
2023-05-21T11:20:08.516Z,-24891.25
2023-05-21T11:22:36.322Z,-24882.06
2023-05-21T11:25:03.805Z,-24884.91
2023-05-21T11:27:41.109Z,-24867.69
2023-05-21T11:30:26.358Z,-24868.56
2023-05-21T11:33:10.138Z,-24886.69
2023-05-21T11:35:46.402Z,-24900.31
2023-05-21T11:38:13.702Z,-24909.78
2023-05-21T11:41:07.142Z,-24921.91
2023-05-21T11:43:34.459Z,-24894.53
2023-05-21T11:46:02.428Z,-24878.97
2023-05-21T11:48:32.495Z,-24893.63
2023-05-21T11:51:01.262Z,-24877.19
2023-05-21T11:53:30.389Z,-24881.03
2023-05-21T11:55:58.031Z,-24871.84
2023-05-21T11:58:25.306Z,-24883.41
2023-05-21T12:00:52.983Z,-24898.53
2023-05-21T12:03:26.890Z,-24900.31
2023-05-21T12:05:54.592Z,-24898.53
2023-05-21T12:08:25.543Z,-24870.81
2023-05-21T12:10:58.512Z,-24875.09
2023-05-21T12:13:26.310Z,-24855.50
2023-05-21T12:15:56.482Z,-24884.91
2023-05-21T12:18:23.897Z,-24906.22
2023-05-21T12:20:54.073Z,-24866.50
2023-05-21T12:23:24.341Z,-24885.78
2023-05-21T12:25:52.347Z,-24883.41
2023-05-21T12:28:21.426Z,-24888.91
2023-05-21T12:30:48.855Z,-24902.38
2023-05-21T12:33:18.050Z,-24902.38
2023-05-21T12:35:46.977Z,-24935.81
2023-05-21T12:38:14.344Z,-24893.63
2023-05-21T12:40:43.735Z,-24925.31
2023-05-21T12:43:11.291Z,-24906.53
2023-05-21T12:45:39.708Z,-24858.03
2023-05-21T12:48:07.251Z,-24865.16
2023-05-21T12:50:36.080Z,-24880.75
2023-05-21T12:53:03.980Z,-24897.03
2023-05-21T12:55:31.652Z,-24880.59
2023-05-21T12:58:03.855Z,-24882.06
2023-05-21T13:00:32.092Z,-24887.41
2023-05-21T13:03:01.174Z,-24895.72
2023-05-21T13:05:28.669Z,-24887.41
2023-05-21T13:07:56.031Z,-24886.81
2023-05-21T13:10:23.330Z,-24869.63
2023-05-21T13:12:51.192Z,-24909.34
2023-05-21T13:15:19.776Z,-24898.09
2023-05-21T13:17:49.690Z,-24913.94
2023-05-21T13:20:21.658Z,-24893.94
2023-05-21T13:22:50.446Z,-24902.38
2023-05-21T13:25:20.423Z,-24881.19
2023-05-21T13:27:49.370Z,-24894.22
2023-05-21T13:30:17.548Z,-24889.78
2023-05-21T13:32:45.892Z,-24899.72
2023-05-21T13:35:13.633Z,-24905.63
2023-05-21T13:37:41.523Z,-24904.16
2023-05-21T13:40:15.337Z,-24882.53
2023-05-21T13:42:43.837Z,-24912.28
2023-05-21T13:45:12.273Z,-24897.50
2023-05-21T13:47:40.485Z,-24903.56
2023-05-21T13:50:08.845Z,-24893.78
2023-05-21T13:52:43.257Z,-24875.09
2023-05-21T13:55:11.142Z,-24882.53
2023-05-21T13:57:39.073Z,-24889.34
2023-05-21T14:00:09.304Z,-24891.41
2023-05-21T14:02:37.632Z,-24883.56
2023-05-21T14:05:05.204Z,-24915.25
2023-05-21T14:07:32.602Z,-24907.84
2023-05-21T14:09:59.950Z,-24901.63
2023-05-21T14:12:27.246Z,-24890.81
2023-05-21T14:14:54.491Z,-24891.41
2023-05-21T14:17:21.731Z,-24897.78
2023-05-21T14:19:49.032Z,-24882.53
2023-05-21T14:22:16.364Z,-24906.66
2023-05-21T14:24:43.727Z,-24898.69
2023-05-21T14:27:12.608Z,-24902.38
2023-05-21T14:29:41.155Z,-24899.56
2023-05-21T14:32:08.497Z,-24901.50
2023-05-21T14:34:35.918Z,-24897.34
2023-05-21T14:37:03.286Z,-24918.81
2023-05-21T14:39:30.566Z,-24892.16
2023-05-21T14:41:57.862Z,-24888.44
2023-05-21T14:44:25.180Z,-24892.31
2023-05-21T14:46:52.534Z,-24906.81
2023-05-21T14:49:19.808Z,-24909.63
2023-05-21T14:51:48.268Z,-24925.03
2023-05-21T14:54:15.745Z,-24925.47
2023-05-21T14:56:43.101Z,-24908.16
2023-05-21T14:59:12.817Z,-24915.25
2023-05-21T15:01:40.202Z,-24913.78
2023-05-21T15:04:08.069Z,-24920.59
2023-05-21T15:06:35.590Z,-24911.13
2023-05-21T15:09:03.068Z,-24902.22
2023-05-21T15:11:30.358Z,-24911.25
2023-05-21T15:14:03.810Z,-24889.63
2023-05-21T15:16:32.535Z,-24883.56
2023-05-21T15:19:00.309Z,-24879.84
2023-05-21T15:21:28.225Z,-24883.13
2023-05-21T15:23:55.726Z,-24882.69
2023-05-21T15:26:25.243Z,-24887.41
2023-05-21T15:28:52.859Z,-24884.16
2023-05-21T15:31:20.165Z,-24869.63
2023-05-21T15:33:47.755Z,-24874.81
2023-05-21T15:36:15.155Z,-24882.53
2023-05-21T15:38:42.506Z,-24867.53
2023-05-21T15:41:09.849Z,-24868.56
2023-05-21T15:43:37.402Z,-24888.59
2023-05-21T15:46:05.247Z,-24878.97
2023-05-21T15:48:32.602Z,-24883.41
2023-05-21T15:50:59.880Z,-24881.34
2023-05-21T15:53:27.338Z,-24887.72
2023-05-21T15:55:54.613Z,-24878.50
2023-05-21T15:58:21.930Z,-24883.56
2023-05-21T16:00:49.493Z,-24883.13
2023-05-21T16:03:17.143Z,-24881.94
2023-05-21T16:05:44.527Z,-24866.81
2023-05-21T16:08:12.451Z,-24873.03
2023-05-21T16:10:40.117Z,-24880.44
2023-05-21T16:13:07.547Z,-24882.06
2023-05-21T16:15:38.473Z,-24879.84
2023-05-21T16:18:06.050Z,-24876.88
2023-05-21T16:20:33.428Z,-24881.47
2023-05-21T16:23:00.852Z,-24877.47
2023-05-21T16:25:28.158Z,-24882.69
2023-05-21T16:27:55.392Z,-24880.44
2023-05-21T16:30:22.665Z,-24866.06
2023-05-21T16:32:50.021Z,-24884.91
2023-05-21T16:35:17.477Z,-24878.38
2023-05-21T16:37:45.011Z,-24873.19
2023-05-21T16:40:13.879Z,-24870.94
2023-05-21T16:42:41.395Z,-24869.78
2023-05-21T16:45:12.378Z,-24859.97
2023-05-21T16:47:40.209Z,-24860.25
2023-05-21T16:50:07.956Z,-24868.13
2023-05-21T16:52:35.280Z,-24873.03
2023-05-21T16:55:02.578Z,-24847.34
2023-05-21T16:57:32.105Z,-24866.81
2023-05-21T16:59:59.793Z,-24859.22
2023-05-21T17:02:27.083Z,-24863.81
2023-05-21T17:04:54.451Z,-24858.03
2023-05-21T17:07:21.700Z,-24850.91
2023-05-21T17:09:52.287Z,-24850.75
2023-05-21T17:12:19.570Z,-24853.00
2023-05-21T17:14:47.026Z,-24851.66
2023-05-21T17:17:17.652Z,-24838.44
2023-05-21T17:19:45.876Z,-24839.91
2023-05-21T17:22:14.322Z,-24839.16
2023-05-21T17:24:41.960Z,-24850.63
2023-05-21T17:27:10.616Z,-24859.53
2023-05-21T17:29:37.967Z,-24852.69
2023-05-21T17:32:08.214Z,-24843.63
2023-05-21T17:34:36.122Z,-24839.31
2023-05-21T17:37:07.381Z,-24840.22
2023-05-21T17:39:36.213Z,-24831.28
2023-05-21T17:42:06.662Z,-24828.16
2023-05-21T17:44:37.322Z,-24835.31
2023-05-21T17:47:04.957Z,-24828.31
2023-05-21T17:49:38.228Z,-24834.72
2023-05-21T17:52:05.936Z,-24831.88
2023-05-21T17:54:38.603Z,-24835.44
2023-05-21T17:57:06.333Z,-24816.56
2023-05-21T17:59:33.789Z,-24820.44
2023-05-21T18:02:03.970Z,-24823.09
2023-05-21T18:04:31.334Z,-24826.22
2023-05-21T18:06:58.615Z,-24818.34
2023-05-21T18:09:26.001Z,-24818.94
2023-05-21T18:11:53.452Z,-24818.19
2023-05-21T18:14:20.777Z,-24820.44
2023-05-21T18:16:48.128Z,-24815.22
2023-05-21T18:19:15.559Z,-24811.94
2023-05-21T18:21:43.258Z,-24812.09
2023-05-21T18:24:12.443Z,-24808.66
2023-05-21T18:26:40.177Z,-24801.22
2023-05-21T18:29:07.622Z,-24798.25
2023-05-21T18:47:25.600Z,-24768.84
2023-05-21T18:49:53.298Z,-24761.69
2023-05-21T18:52:22.897Z,-24759.31
2023-05-21T18:54:50.521Z,-24751.25
2023-05-21T18:57:42.693Z,-24748.25
2023-05-21T19:00:11.633Z,-24737.03
2023-05-21T19:02:39.941Z,-24740.03
2023-05-21T19:06:18.219Z,-24744.97
2023-05-21T19:08:48.005Z,-24741.53
2023-05-21T19:11:17.618Z,-24740.47
2023-05-21T19:13:56.805Z,-24736.16
2023-05-21T19:16:24.307Z,-24735.25
2023-05-21T19:18:53.076Z,-24724.91
2023-05-21T19:21:20.828Z,-24729.41
2023-05-21T19:23:53.186Z,-24729.41
2023-05-21T19:26:25.926Z,-24729.88
2023-05-21T19:28:54.698Z,-24722.69
2023-05-21T19:31:47.755Z,-24717.75
2023-05-21T19:34:15.224Z,-24722.09
2023-05-21T19:36:53.018Z,-24723.13
2023-05-21T19:39:59.641Z,-24720.44
2023-05-21T19:42:27.232Z,-24721.94
2023-05-21T19:45:44.321Z,-24723.44
2023-05-21T19:47:45.093Z,-24725.22
2023-05-21T19:50:30.432Z,-24722.69
2023-05-21T19:53:28.598Z,-24721.63
2023-05-21T20:00:14.516Z,-24721.63
2023-05-21T20:48:49.980Z,-24718.94
2023-05-21T20:51:25.304Z,-24714.44
2023-05-21T20:54:08.887Z,-24714.44
2023-05-21T20:56:47.268Z,-24710.09
2023-05-21T20:59:17.085Z,-24708.75
2023-05-21T21:01:57.735Z,-24713.25
2023-05-21T21:04:30.052Z,-24706.50
2023-05-21T21:07:04.287Z,-24706.97
2023-05-21T21:09:31.963Z,-24705.91
2023-05-21T21:12:06.276Z,-24706.06
2023-05-21T21:14:39.934Z,-24707.56
2023-05-21T21:17:07.391Z,-24707.41
2023-05-21T21:19:35.530Z,-24709.34
2023-05-21T21:22:02.950Z,-24709.81
2023-05-21T21:24:30.502Z,-24712.06
2023-05-21T21:26:57.966Z,-24712.66
2023-05-21T22:41:54.635Z,-24685.22
2023-05-21T23:12:46.313Z,-24697.66
2023-05-21T23:14:37.955Z,-24687.03
2023-05-21T23:15:13.680Z,-24697.66
2023-05-21T23:17:41.739Z,-24695.88
2023-05-21T23:20:09.419Z,-24697.66
2023-05-21T23:22:36.945Z,-24698.88
2023-05-21T23:25:04.471Z,-24696.91
2023-05-21T23:27:32.444Z,-24700.66
2023-05-21T23:30:00.187Z,-24696.78
2023-05-21T23:32:27.816Z,-24699.31
2023-05-21T23:34:57.041Z,-24697.97
2023-05-21T23:37:24.498Z,-24693.31
2023-05-21T23:39:52.044Z,-24691.97
2023-05-21T23:42:19.502Z,-24695.56
2023-05-21T23:44:46.917Z,-24696.78
2023-05-21T23:47:14.377Z,-24700.50
2023-05-21T23:49:41.778Z,-24702.47
2023-05-21T23:52:09.240Z,-24700.81
2023-05-21T23:54:36.648Z,-24704.88
2023-05-21T23:57:04.760Z,-24711.91
2023-05-21T23:59:32.487Z,-24719.38
